createdAt,value
2023-02-11T00:00:40.999Z,102641.53
2023-02-11T00:03:43.650Z,102645.69
2023-02-11T00:06:47.066Z,102643.03
2023-02-11T00:09:50.647Z,102634.88
2023-02-11T00:12:53.186Z,102629.34
2023-02-11T00:15:56.621Z,102626.22
2023-02-11T00:19:00.578Z,102625.22
2023-02-11T00:22:04.117Z,102625.56
2023-02-11T00:25:09.665Z,102624.22
2023-02-11T00:28:13.496Z,102623.22
2023-02-11T00:31:18.291Z,102622.38
2023-02-11T00:34:20.982Z,102627.53
2023-02-11T00:37:23.653Z,102624.53
2023-02-11T00:40:31.198Z,102619.22
2023-02-11T00:43:35.712Z,102630.69
2023-02-11T00:46:39.090Z,102622.22
2023-02-11T00:49:42.534Z,102616.53
2023-02-11T00:52:45.265Z,102619.22
2023-02-11T00:55:49.002Z,102614.56
2023-02-11T00:58:54.244Z,102606.72
2023-02-11T01:01:57.676Z,102599.53
2023-02-11T01:05:01.131Z,102595.22
2023-02-11T01:08:04.033Z,102585.72
2023-02-11T01:11:13.767Z,102591.38
2023-02-11T01:14:18.205Z,102587.91
2023-02-11T01:17:20.887Z,102578.94
2023-02-11T01:20:28.419Z,102563.09
2023-02-11T01:23:33.363Z,102555.59
2023-02-11T01:26:36.584Z,102556.28
2023-02-11T01:29:39.194Z,102565.13
2023-02-11T01:32:41.810Z,102562.09
2023-02-11T01:35:45.578Z,102562.09
2023-02-11T01:38:49.929Z,102561.94
2023-02-11T01:41:55.376Z,102558.94
2023-02-11T01:45:01.704Z,102559.09
2023-02-11T01:48:06.306Z,102566.09
2023-02-11T01:51:29.732Z,102563.22
2023-02-11T01:54:56.534Z,102555.25
2023-02-11T01:58:05.076Z,102553.59
2023-02-11T02:01:11.062Z,102553.25
2023-02-11T02:04:17.906Z,102560.09
2023-02-11T02:07:36.773Z,102554.94
2023-02-11T02:10:54.725Z,102553.06
2023-02-11T02:14:00.327Z,102561.72
2023-02-11T02:17:03.056Z,102560.88
2023-02-11T02:20:11.973Z,102562.72
2023-02-11T02:23:33.380Z,102559.59
2023-02-11T02:26:49.670Z,102560.78
2023-02-11T02:30:20.146Z,102559.59
2023-02-11T02:33:44.722Z,102558.44
2023-02-11T02:36:59.084Z,102544.25
2023-02-11T02:40:11.624Z,102545.41
2023-02-11T02:43:15.392Z,102539.75
2023-02-11T02:46:27.245Z,102544.75
2023-02-11T02:49:30.702Z,102541.09
2023-02-11T02:52:48.552Z,102541.94
2023-02-11T02:56:09.519Z,102541.44
2023-02-11T02:59:31.449Z,102531.78
2023-02-11T03:02:40.432Z,102534.94
2023-02-11T03:06:24.534Z,102536.09
2023-02-11T03:09:42.647Z,102535.94
2023-02-11T03:12:48.610Z,102533.09
2023-02-11T03:15:55.386Z,102526.28
2023-02-11T03:19:24.316Z,102525.25
2023-02-11T03:22:35.147Z,102514.78
2023-02-11T03:25:45.672Z,102505.97
2023-02-11T03:28:54.320Z,102511.28
2023-02-11T03:32:04.095Z,102510.13
2023-02-11T03:35:23.366Z,102505.13
2023-02-11T03:38:33.321Z,102501.75
2023-02-11T03:41:37.261Z,102491.13
2023-02-11T03:44:58.465Z,102494.81
2023-02-11T03:48:07.266Z,102476.19
2023-02-11T03:51:12.731Z,102474.84
2023-02-11T03:54:20.901Z,102470.50
2023-02-11T03:57:24.028Z,102476.81
2023-02-11T04:00:35.442Z,102468.31
2023-02-11T04:03:38.246Z,102465.50
2023-02-11T04:06:41.963Z,102457.19
2023-02-11T04:09:44.926Z,102450.88
2023-02-11T04:12:47.684Z,102442.88
2023-02-11T04:15:51.686Z,102448.72
2023-02-11T04:18:54.486Z,102438.06
2023-02-11T04:21:58.230Z,102435.38
2023-02-11T04:25:01.889Z,102439.41
2023-02-11T04:28:05.426Z,102432.22
2023-02-11T04:31:08.052Z,102435.03
2023-02-11T04:34:11.573Z,102439.34
2023-02-11T04:37:15.978Z,102442.66
2023-02-11T04:40:18.747Z,102439.50
2023-02-11T04:43:24.019Z,102435.53
2023-02-11T04:46:26.822Z,102437.19
2023-02-11T04:49:29.503Z,102439.13
2023-02-11T04:52:33.094Z,102443.09
2023-02-11T04:55:35.659Z,102442.09
2023-02-11T04:58:39.352Z,102438.34
2023-02-11T05:01:43.009Z,102441.16
2023-02-11T05:04:46.526Z,102430.88
2023-02-11T05:07:49.303Z,102442.81
2023-02-11T05:10:53.053Z,102449.81
2023-02-11T05:13:56.460Z,102444.81
2023-02-11T05:16:59.357Z,102446.47
2023-02-11T05:20:02.238Z,102455.44
2023-02-11T05:23:05.061Z,102448.47
2023-02-11T05:26:08.972Z,102439.66
2023-02-11T05:29:12.382Z,102438.84
2023-02-11T05:32:17.741Z,102433.94
2023-02-11T05:35:21.175Z,102434.69
2023-02-11T05:38:26.527Z,102438.44
2023-02-11T05:41:29.122Z,102428.47
2023-02-11T05:44:32.018Z,102422.47
2023-02-11T05:47:35.416Z,102422.06
2023-02-11T05:50:38.927Z,102421.25
2023-02-11T05:53:42.537Z,102427.50
2023-02-11T05:56:45.888Z,102422.09
2023-02-11T05:59:48.545Z,102422.56
2023-02-11T06:02:52.970Z,102434.19
2023-02-11T06:05:55.593Z,102429.38
2023-02-11T06:08:59.977Z,102433.47
2023-02-11T06:12:02.601Z,102438.50
2023-02-11T06:15:08.883Z,102435.03
2023-02-11T06:18:12.567Z,102425.66
2023-02-11T06:21:15.994Z,102420.84
2023-02-11T06:24:38.420Z,102413.69
2023-02-11T06:27:41.334Z,102419.19
2023-02-11T06:30:45.030Z,102410.78
2023-02-11T06:33:47.809Z,102410.16
2023-02-11T06:36:50.998Z,102412.19
2023-02-11T06:39:53.629Z,102422.47
2023-02-11T06:42:56.298Z,102417.00
2023-02-11T06:45:59.482Z,102422.31
2023-02-11T06:49:02.163Z,102414.50
2023-02-11T06:52:05.872Z,102406.34
2023-02-11T06:55:09.621Z,102408.66
2023-02-11T06:58:12.241Z,102420.66
2023-02-11T07:01:16.479Z,102403.19
2023-02-11T07:04:19.496Z,102402.34
2023-02-11T07:07:23.219Z,102403.31
2023-02-11T07:10:26.574Z,102403.13
2023-02-11T07:13:29.199Z,102403.44
2023-02-11T07:16:33.146Z,102391.75
2023-02-11T07:19:36.966Z,102388.75
2023-02-11T07:22:39.606Z,102392.84
2023-02-11T07:25:43.020Z,102395.06
2023-02-11T07:28:51.165Z,102394.63
2023-02-11T07:31:55.182Z,102385.56
2023-02-11T07:34:58.042Z,102385.31
2023-02-11T07:38:00.789Z,102386.22
2023-02-11T07:41:06.879Z,102380.59
2023-02-11T07:44:10.724Z,102382.22
2023-02-11T07:47:14.112Z,102380.22
2023-02-11T07:50:17.940Z,102376.31
2023-02-11T07:53:20.618Z,102378.22
2023-02-11T07:56:23.578Z,102378.56
2023-02-11T07:59:27.471Z,102360.03
2023-02-11T08:02:30.260Z,102360.06
2023-02-11T08:05:33.602Z,102358.84
2023-02-11T08:08:37.203Z,102363.66
2023-02-11T08:11:39.772Z,102367.72
2023-02-11T08:14:43.162Z,102371.03
2023-02-11T08:17:47.654Z,102363.16
2023-02-11T08:20:51.335Z,102363.19
2023-02-11T08:23:54.701Z,102365.31
2023-02-11T08:26:57.433Z,102364.19
2023-02-11T08:30:01.894Z,102363.91
2023-02-11T08:33:05.594Z,102360.34
2023-02-11T08:36:14.144Z,102367.75
2023-02-11T08:39:21.122Z,102364.50
2023-02-11T08:42:24.673Z,102366.16
2023-02-11T08:45:28.612Z,102365.03
2023-02-11T08:48:32.203Z,102357.84
2023-02-11T08:51:35.694Z,102350.75
2023-02-11T08:54:39.318Z,102356.72
2023-02-11T08:57:41.918Z,102351.91
2023-02-11T09:00:45.432Z,102348.72
2023-02-11T09:03:48.450Z,102335.38
2023-02-11T09:06:51.104Z,102336.81
2023-02-11T09:09:54.819Z,102329.88
2023-02-11T09:12:57.788Z,102324.09
2023-02-11T09:16:03.500Z,102326.69
2023-02-11T09:19:06.556Z,102322.53
2023-02-11T09:22:10.318Z,102322.75
2023-02-11T09:25:13.077Z,102322.78
2023-02-11T09:28:16.754Z,102313.63
2023-02-11T09:31:24.031Z,102313.63
2023-02-11T09:34:26.984Z,102312.31
2023-02-11T09:37:30.298Z,102315.31
2023-02-11T09:40:34.081Z,102300.78
2023-02-11T09:43:44.714Z,102303.88
2023-02-11T09:46:55.841Z,102306.63
2023-02-11T09:50:07.694Z,102307.25
2023-02-11T09:53:16.926Z,102301.50
2023-02-11T09:56:20.323Z,102297.63
2023-02-11T09:59:23.876Z,102290.19
2023-02-11T10:02:46.959Z,102295.19
2023-02-11T10:06:01.690Z,102293.19
2023-02-11T10:09:35.594Z,102293.03
2023-02-11T10:12:39.190Z,102296.97
2023-02-11T10:16:00.410Z,102283.41
2023-02-11T10:19:28.069Z,102286.22
2023-02-11T10:22:42.529Z,102275.13
2023-02-11T10:25:49.579Z,102271.19
2023-02-11T10:28:54.632Z,102265.81
2023-02-11T10:31:58.891Z,102264.31
2023-02-11T10:35:10.584Z,102254.72
2023-02-11T10:38:13.314Z,102253.03
2023-02-11T10:41:26.489Z,102248.78
2023-02-11T10:44:37.652Z,102238.25
2023-02-11T10:47:41.652Z,102238.13
2023-02-11T10:50:44.420Z,102227.41
2023-02-11T10:54:13.833Z,102222.16
2023-02-11T10:57:20.147Z,102219.78
2023-02-11T11:00:42.343Z,102209.25
2023-02-11T11:03:51.917Z,102207.03
2023-02-11T11:06:55.845Z,102199.72
2023-02-11T11:10:06.783Z,102204.66
2023-02-11T11:13:29.898Z,102187.25
2023-02-11T11:16:35.289Z,102177.66
2023-02-11T11:19:39.297Z,102193.25
2023-02-11T11:22:43.631Z,102188.91
2023-02-11T11:26:04.221Z,102184.31
2023-02-11T11:29:16.317Z,102175.84
2023-02-11T11:32:37.161Z,102166.72
2023-02-11T11:35:41.076Z,102165.16
2023-02-11T11:38:58.104Z,102146.75
2023-02-11T11:42:06.266Z,102133.38
2023-02-11T11:45:10.232Z,102151.47
2023-02-11T11:48:34.410Z,102127.84
2023-02-11T11:51:40.461Z,102126.69
2023-02-11T11:54:50.554Z,102135.22
2023-02-11T11:57:53.186Z,102129.94
2023-02-11T12:01:11.598Z,102126.22
2023-02-11T12:04:32.836Z,102128.81
2023-02-11T12:07:50.302Z,102108.63
2023-02-11T12:11:02.001Z,102093.94
2023-02-11T12:14:17.011Z,102087.84
2023-02-11T12:17:46.759Z,102076.91
2023-02-11T12:21:14.931Z,102067.50
2023-02-11T12:24:25.376Z,102064.22
2023-02-11T12:27:50.835Z,102064.22
2023-02-11T12:31:49.500Z,102053.75
2023-02-11T12:34:59.669Z,102049.09
2023-02-11T12:38:18.863Z,102044.50
2023-02-11T12:42:03.564Z,102049.63
2023-02-11T12:45:09.518Z,102044.66
2023-02-11T12:48:29.160Z,102040.38
2023-02-11T12:51:36.863Z,102030.50
2023-02-11T12:55:00.599Z,102029.19
2023-02-11T12:58:04.535Z,102019.94
2023-02-11T13:01:23.885Z,102014.53
2023-02-11T13:04:37.786Z,102017.88
2023-02-11T13:07:45.346Z,102028.59
2023-02-11T13:10:53.204Z,102022.75
2023-02-11T13:14:02.124Z,102003.25
2023-02-11T13:17:18.479Z,102005.41
2023-02-11T13:20:37.032Z,101999.88
2023-02-11T13:23:58.006Z,101993.53
2023-02-11T13:27:32.169Z,101984.19
2023-02-11T13:30:41.045Z,101975.25
2023-02-11T13:33:44.501Z,101980.91
2023-02-11T13:36:55.906Z,101977.69
2023-02-11T13:40:20.440Z,101967.28
2023-02-11T13:43:28.861Z,101967.41
2023-02-11T13:46:51.103Z,101966.31
2023-02-11T13:49:54.606Z,101961.81
2023-02-11T13:53:01.459Z,101970.69
2023-02-11T13:56:08.877Z,101977.38
2023-02-11T13:59:33.060Z,101977.84
2023-02-11T14:03:00.227Z,101981.72
2023-02-11T14:06:48.047Z,101971.50
2023-02-11T14:09:57.080Z,101974.56
2023-02-11T14:13:22.342Z,101966.31
2023-02-11T14:16:37.548Z,101957.19
2023-02-11T14:19:48.054Z,101970.22
2023-02-11T14:22:53.541Z,101963.88
2023-02-11T14:26:08.907Z,101980.91
2023-02-11T14:29:26.239Z,101993.72
2023-02-11T14:33:00.029Z,101992.44
2023-02-11T14:36:28.594Z,101994.19
2023-02-11T14:39:52.734Z,101991.50
2023-02-11T14:43:01.949Z,101996.44
2023-02-11T14:46:05.768Z,101990.03
2023-02-11T14:49:33.986Z,101992.91
2023-02-11T14:52:38.897Z,101986.09
2023-02-11T14:55:44.537Z,101983.59
2023-02-11T14:58:49.539Z,101966.66
2023-02-11T15:01:57.016Z,101975.03
2023-02-11T15:05:20.682Z,101959.25
2023-02-11T15:08:24.674Z,101958.53
2023-02-11T15:11:31.843Z,101951.75
2023-02-11T15:14:36.706Z,101945.97
2023-02-11T15:17:39.518Z,101946.19
2023-02-11T15:20:42.187Z,101937.72
2023-02-11T15:23:56.672Z,101952.03
2023-02-11T15:27:16.271Z,101938.31
2023-02-11T15:30:21.973Z,101938.69
2023-02-11T15:33:27.690Z,101938.50
2023-02-11T15:36:33.160Z,101936.13
2023-02-11T15:39:41.122Z,101926.41
2023-02-11T15:43:06.243Z,101925.97
2023-02-11T15:46:14.046Z,101914.59
2023-02-11T15:49:19.279Z,101922.09
2023-02-11T15:52:26.838Z,101922.56
2023-02-11T15:55:30.274Z,101918.47
2023-02-11T15:58:38.181Z,101916.13
2023-02-11T16:01:42.774Z,101920.59
2023-02-11T16:04:56.605Z,101911.56
2023-02-11T16:08:01.436Z,101899.00
2023-02-11T16:11:09.229Z,101890.31
2023-02-11T16:14:42.264Z,101891.38
2023-02-11T16:17:45.703Z,101896.28
2023-02-11T16:20:49.761Z,101889.84
2023-02-11T16:23:56.475Z,101879.53
2023-02-11T16:27:29.836Z,101879.06
2023-02-11T16:30:38.320Z,101892.19
2023-02-11T16:33:42.132Z,101893.97
2023-02-11T16:36:47.502Z,101885.06
2023-02-11T16:39:55.296Z,101891.50
2023-02-11T16:42:59.264Z,101884.00
2023-02-11T16:46:02.105Z,101883.75
2023-02-11T16:49:11.639Z,101874.47
2023-02-11T16:52:16.850Z,101868.50
2023-02-11T16:55:22.048Z,101884.56
2023-02-11T16:58:25.285Z,101886.78
2023-02-11T17:01:28.795Z,101887.00
2023-02-11T17:04:34.420Z,101886.78
2023-02-11T17:07:37.440Z,101881.03
2023-02-11T17:10:41.287Z,101892.56
2023-02-11T17:13:46.862Z,101888.78
2023-02-11T17:16:50.804Z,101895.22
2023-02-11T17:19:53.891Z,101889.94
2023-02-11T17:22:56.857Z,101900.59
2023-02-11T17:26:00.719Z,101914.22
2023-02-11T17:29:12.179Z,101918.88
2023-02-11T17:32:15.594Z,101909.88
2023-02-11T17:35:19.251Z,101907.66
2023-02-11T17:38:23.215Z,101907.41
2023-02-11T17:41:27.349Z,101903.03
2023-02-11T17:44:30.781Z,101906.81
2023-02-11T17:47:33.664Z,101911.03
2023-02-11T17:50:40.812Z,101912.09
2023-02-11T17:53:43.986Z,101897.91
2023-02-11T17:56:50.706Z,101887.25
2023-02-11T17:59:54.849Z,101878.75
2023-02-11T18:03:02.742Z,101870.72
2023-02-11T18:06:06.809Z,101875.94
2023-02-11T18:09:11.415Z,101865.28
2023-02-11T18:12:14.414Z,101872.31
2023-02-11T18:15:18.584Z,101866.13
2023-02-11T18:18:21.730Z,101861.88
2023-02-11T18:21:25.964Z,101858.25
2023-02-11T18:24:30.279Z,101854.84
2023-02-11T18:27:32.894Z,101863.66
2023-02-11T18:30:36.399Z,101868.91
2023-02-11T18:33:41.374Z,101862.25
2023-02-11T18:36:44.963Z,101864.91
2023-02-11T18:39:48.912Z,101865.63
2023-02-11T18:42:52.297Z,101860.13
2023-02-11T18:45:55.895Z,101856.84
2023-02-11T18:48:58.896Z,101866.56
2023-02-11T18:52:03.424Z,101865.53
2023-02-11T18:55:07.658Z,101865.78
2023-02-11T18:58:10.905Z,101871.38
2023-02-11T19:01:21.114Z,101871.19
2023-02-11T19:04:24.872Z,101867.09
2023-02-11T19:07:27.947Z,101877.16
2023-02-11T19:10:31.395Z,101865.28
2023-02-11T19:13:35.384Z,101863.66
2023-02-11T19:16:43.710Z,101867.28
2023-02-11T19:19:48.498Z,101871.03
2023-02-11T19:22:51.394Z,101875.00
2023-02-11T19:25:54.405Z,101881.13
2023-02-11T19:28:59.459Z,101888.88
2023-02-11T19:32:05.844Z,101891.31
2023-02-11T19:35:09.546Z,101873.06
2023-02-11T19:38:15.796Z,101879.66
2023-02-11T19:41:24.745Z,101877.34
2023-02-11T19:44:28.497Z,101870.78
2023-02-11T19:47:31.532Z,101888.34
2023-02-11T19:50:36.982Z,101886.00
2023-02-11T19:53:41.182Z,101885.84
2023-02-11T19:56:44.970Z,101877.69
2023-02-11T19:59:49.285Z,101869.56
2023-02-11T20:02:52.697Z,101865.97
2023-02-11T20:05:55.592Z,101861.06
2023-02-11T20:09:02.004Z,101857.56
2023-02-11T20:12:06.596Z,101853.84
2023-02-11T20:15:10.440Z,101853.91
2023-02-11T20:18:14.008Z,101847.19
2023-02-11T20:21:19.931Z,101853.03
2023-02-11T20:24:23.810Z,101857.84
2023-02-11T20:27:32.202Z,101867.34
2023-02-11T20:30:35.251Z,101854.59
2023-02-11T20:33:38.943Z,101861.00
2023-02-11T20:36:42.053Z,101862.91
2023-02-11T20:39:45.552Z,101857.38
2023-02-11T20:42:48.999Z,101850.31
2023-02-11T20:45:53.766Z,101848.47
2023-02-11T20:48:57.547Z,101849.56
2023-02-11T20:52:00.478Z,101846.59
2023-02-11T20:55:03.692Z,101853.56
2023-02-11T20:58:09.343Z,101850.63
2023-02-11T21:01:20.178Z,101845.88
2023-02-11T21:04:29.712Z,101847.44
2023-02-11T21:07:32.611Z,101839.22
2023-02-11T21:10:35.372Z,101839.41
2023-02-11T21:13:40.261Z,101846.88
2023-02-11T21:16:44.145Z,101852.09
2023-02-11T21:19:47.003Z,101857.03
2023-02-11T21:22:50.189Z,101857.47
2023-02-11T21:25:54.663Z,101857.44
2023-02-11T21:28:57.962Z,101860.34
2023-02-11T21:32:01.105Z,101861.50
2023-02-11T21:35:05.567Z,101852.09
2023-02-11T21:38:08.328Z,101846.03
2023-02-11T21:41:11.873Z,101859.59
2023-02-11T21:44:15.744Z,101841.50
2023-02-11T21:47:18.403Z,101846.53
2023-02-11T21:50:22.084Z,101849.31
2023-02-11T21:53:24.815Z,101823.03
2023-02-11T21:56:29.655Z,101847.78
2023-02-11T21:59:32.731Z,101846.66
2023-02-11T22:02:37.978Z,101843.09
2023-02-11T22:05:41.383Z,101846.84
2023-02-11T22:08:44.820Z,101859.13
2023-02-11T22:11:49.349Z,101871.19
2023-02-11T22:14:51.856Z,101865.56
2023-02-11T22:17:54.466Z,101853.66
2023-02-11T22:21:06.967Z,101872.72
2023-02-11T22:24:10.566Z,101865.13
2023-02-11T22:27:14.693Z,101867.00
2023-02-11T22:30:18.197Z,101860.72
2023-02-11T22:33:23.127Z,101863.84
2023-02-11T22:36:29.877Z,101866.59
2023-02-11T22:39:33.184Z,101872.13
2023-02-11T22:42:35.939Z,101868.53
2023-02-11T22:45:39.152Z,101866.59
2023-02-11T22:48:42.425Z,101863.91
2023-02-11T22:51:46.496Z,101852.69
2023-02-11T22:54:51.329Z,101869.44
2023-02-11T22:57:53.928Z,101870.84
2023-02-11T23:00:56.625Z,101872.06
2023-02-11T23:04:01.258Z,101884.63
2023-02-11T23:07:04.688Z,101890.25
2023-02-11T23:10:10.552Z,101877.22
2023-02-11T23:13:14.240Z,101884.03
2023-02-11T23:16:20.155Z,101882.44
2023-02-11T23:19:23.979Z,101878.66
2023-02-11T23:22:27.931Z,101871.97
2023-02-11T23:25:31.429Z,101877.63
2023-02-11T23:28:34.076Z,101882.28
2023-02-11T23:31:40.437Z,101869.06
2023-02-11T23:34:43.240Z,101866.81
2023-02-11T23:37:45.929Z,101856.03
2023-02-11T23:40:49.175Z,101854.03
2023-02-11T23:43:56.412Z,101851.63
2023-02-11T23:46:59.733Z,101854.63
2023-02-11T23:50:04.161Z,101850.31
2023-02-11T23:53:08.713Z,101850.31
2023-02-11T23:56:20.189Z,101857.00
2023-02-11T23:59:22.966Z,101863.56
